createdAt,value
2023-02-23T00:02:15.723Z,79.72
2023-02-23T00:04:44.196Z,80.74
2023-02-23T00:07:12.961Z,81.18
2023-02-23T00:09:41.394Z,81.77
2023-02-23T00:12:09.838Z,81.56
2023-02-23T00:14:39.119Z,80.92
2023-02-23T00:17:15.429Z,81.09
2023-02-23T00:19:47.064Z,81.55
2023-02-23T00:22:15.457Z,80.52
2023-02-23T00:24:43.816Z,80.97
2023-02-23T00:27:18.700Z,81.12
2023-02-23T00:29:50.252Z,80.99
2023-02-23T00:32:22.328Z,80.60
2023-02-23T00:34:51.471Z,81.22
2023-02-23T00:37:20.479Z,81.28
2023-02-23T00:39:48.771Z,80.64
2023-02-23T00:42:17.151Z,81.15
2023-02-23T00:44:45.460Z,77.51
2023-02-23T00:47:13.886Z,78.22
2023-02-23T00:49:42.753Z,79.21
2023-02-23T00:52:11.060Z,78.46
2023-02-23T00:54:39.338Z,77.64
2023-02-23T00:57:07.622Z,77.95
2023-02-23T00:59:35.996Z,77.29
2023-02-23T01:02:04.481Z,76.51
2023-02-23T01:04:32.813Z,76.98
2023-02-23T01:07:01.140Z,76.98
2023-02-23T01:09:29.513Z,75.61
2023-02-23T01:12:02.470Z,74.77
2023-02-23T01:14:32.081Z,74.32
2023-02-23T01:17:01.237Z,75.22
2023-02-23T01:19:29.619Z,73.81
2023-02-23T01:21:57.961Z,74.03
2023-02-23T01:24:26.334Z,72.70
2023-02-23T01:26:54.790Z,73.56
2023-02-23T01:29:23.112Z,74.15
2023-02-23T01:31:54.283Z,73.12
2023-02-23T01:34:22.988Z,73.53
2023-02-23T01:36:52.313Z,73.80
2023-02-23T01:39:22.049Z,72.31
2023-02-23T01:41:52.758Z,72.91
2023-02-23T01:44:21.028Z,72.43
2023-02-23T01:46:51.134Z,71.71
2023-02-23T01:49:26.457Z,71.08
2023-02-23T01:52:06.058Z,71.75
2023-02-23T01:54:40.005Z,70.66
2023-02-23T01:57:12.490Z,69.81
2023-02-23T01:59:44.201Z,70.41
2023-02-23T02:02:14.264Z,70.11
2023-02-23T02:04:47.317Z,69.57
2023-02-23T02:07:28.013Z,70.21
2023-02-23T02:10:14.627Z,69.92
2023-02-23T02:12:46.371Z,69.75
2023-02-23T02:15:19.060Z,69.14
2023-02-23T02:18:10.067Z,69.32
2023-02-23T02:20:59.309Z,69.77
2023-02-23T02:23:54.862Z,69.15
2023-02-23T02:26:30.451Z,68.86
2023-02-23T02:29:16.744Z,68.73
2023-02-23T02:32:03.820Z,68.38
2023-02-23T02:35:08.395Z,68.75
2023-02-23T02:38:02.585Z,67.83
2023-02-23T02:41:10.117Z,67.21
2023-02-23T02:43:43.857Z,66.11
2023-02-23T02:46:24.748Z,66.52
2023-02-23T02:49:04.967Z,66.65
2023-02-23T02:51:37.658Z,67.01
2023-02-23T02:54:39.407Z,67.39
2023-02-23T02:57:09.002Z,66.09
2023-02-23T03:00:08.564Z,66.33
2023-02-23T03:02:58.998Z,67.88
2023-02-23T03:05:53.871Z,65.58
2023-02-23T03:08:53.144Z,65.67
2023-02-23T03:11:39.707Z,65.93
2023-02-23T03:14:26.526Z,65.58
2023-02-23T03:17:12.840Z,64.75
2023-02-23T03:20:20.391Z,64.92
2023-02-23T03:23:37.690Z,65.02
2023-02-23T03:26:57.868Z,63.22
2023-02-23T03:30:03.187Z,64.05
2023-02-23T03:33:13.174Z,64.06
2023-02-23T03:36:23.210Z,63.64
2023-02-23T03:39:19.180Z,63.30
2023-02-23T03:42:09.791Z,62.44
2023-02-23T03:45:01.890Z,62.21
2023-02-23T03:47:54.466Z,62.43
2023-02-23T03:50:48.945Z,60.88
2023-02-23T03:53:41.067Z,60.86
2023-02-23T03:56:29.640Z,62.65
2023-02-23T03:59:19.766Z,63.80
2023-02-23T04:02:07.949Z,63.73
2023-02-23T04:04:56.156Z,63.13
2023-02-23T04:07:43.510Z,61.99
2023-02-23T04:10:31.643Z,62.02
2023-02-23T04:13:17.388Z,61.64
2023-02-23T04:16:02.450Z,61.57
2023-02-23T04:18:34.402Z,61.22
2023-02-23T04:21:03.896Z,60.19
2023-02-23T04:23:32.894Z,59.02
2023-02-23T04:26:01.268Z,59.93
2023-02-23T04:28:30.426Z,61.20
2023-02-23T04:30:58.805Z,60.49
2023-02-23T04:33:28.158Z,58.66
2023-02-23T04:35:56.889Z,61.58
2023-02-23T04:38:25.638Z,58.63
2023-02-23T04:40:54.055Z,58.23
2023-02-23T04:43:22.399Z,59.14
2023-02-23T04:45:50.733Z,59.75
2023-02-23T04:48:19.048Z,59.99
2023-02-23T04:50:47.342Z,57.67
2023-02-23T04:53:15.750Z,59.31
2023-02-23T04:55:44.795Z,58.25
2023-02-23T04:58:15.004Z,59.84
2023-02-23T05:00:43.613Z,59.09
2023-02-23T05:03:13.162Z,58.23
2023-02-23T05:05:41.590Z,57.78
2023-02-23T05:08:10.207Z,58.38
2023-02-23T05:10:40.252Z,60.00
2023-02-23T05:13:09.010Z,58.64
2023-02-23T05:15:38.264Z,57.38
2023-02-23T05:18:06.722Z,58.63
2023-02-23T05:20:35.176Z,56.65
2023-02-23T05:23:03.680Z,55.32
2023-02-23T05:25:31.996Z,56.68
2023-02-23T05:28:00.623Z,56.83
2023-02-23T05:30:28.980Z,56.41
2023-02-23T05:32:57.326Z,56.67
2023-02-23T05:35:25.787Z,57.41
2023-02-23T05:37:54.174Z,52.49
2023-02-23T05:40:22.505Z,56.19
2023-02-23T05:42:50.889Z,54.29
2023-02-23T05:45:19.293Z,53.24
2023-02-23T05:47:47.595Z,54.08
2023-02-23T05:50:15.892Z,56.08
2023-02-23T05:52:44.238Z,52.89
2023-02-23T05:55:13.728Z,51.10
2023-02-23T05:57:42.320Z,54.61
2023-02-23T06:00:11.632Z,52.98
2023-02-23T06:02:40.936Z,51.86
2023-02-23T06:05:11.728Z,48.99
2023-02-23T06:07:40.526Z,50.61
2023-02-23T06:10:09.703Z,50.70
2023-02-23T06:12:38.048Z,51.92
2023-02-23T06:15:06.940Z,50.13
2023-02-23T06:17:35.302Z,51.05
2023-02-23T06:20:05.712Z,46.07
2023-02-23T06:22:34.127Z,48.58
2023-02-23T06:25:06.587Z,50.03
2023-02-23T06:27:34.877Z,50.62
2023-02-23T06:30:03.161Z,50.73
2023-02-23T06:32:31.535Z,49.68
2023-02-23T06:35:00.649Z,51.34
2023-02-23T06:37:29.942Z,49.17
2023-02-23T06:39:58.428Z,48.83
2023-02-23T06:42:26.918Z,49.91
2023-02-23T06:44:55.233Z,48.74
2023-02-23T06:47:23.780Z,46.78
2023-02-23T06:49:52.082Z,46.67
2023-02-23T06:52:20.376Z,48.41
2023-02-23T06:54:50.911Z,46.97
2023-02-23T06:57:20.344Z,48.59
2023-02-23T06:59:48.740Z,46.86
2023-02-23T07:02:17.163Z,45.47
2023-02-23T07:04:45.553Z,46.58
2023-02-23T07:07:14.119Z,44.82
2023-02-23T07:09:43.866Z,45.81
2023-02-23T07:12:12.263Z,47.13
2023-02-23T07:14:41.066Z,48.67
2023-02-23T07:17:11.552Z,46.22
2023-02-23T07:19:41.021Z,46.97
2023-02-23T07:22:09.365Z,47.49
2023-02-23T07:24:38.463Z,48.79
2023-02-23T07:27:06.780Z,48.07
2023-02-23T07:29:35.171Z,47.80
2023-02-23T07:32:03.603Z,47.59
2023-02-23T07:34:31.995Z,49.28
2023-02-23T07:37:00.318Z,45.52
2023-02-23T07:39:28.766Z,47.96
2023-02-23T07:41:57.082Z,44.65
2023-02-23T07:44:25.465Z,45.09
2023-02-23T07:46:54.139Z,44.97
2023-02-23T07:49:22.444Z,44.17
2023-02-23T07:51:50.781Z,45.20
2023-02-23T07:54:19.116Z,44.57
2023-02-23T07:56:47.447Z,47.29
2023-02-23T07:59:16.263Z,44.93
2023-02-23T08:01:44.712Z,45.77
2023-02-23T08:04:13.087Z,43.66
2023-02-23T08:06:41.417Z,46.84
2023-02-23T08:09:09.939Z,47.14
2023-02-23T08:11:38.264Z,45.12
2023-02-23T08:14:06.725Z,46.89
2023-02-23T08:16:35.403Z,46.72
2023-02-23T08:19:03.897Z,48.16
2023-02-23T08:21:32.852Z,45.20
2023-02-23T08:24:01.472Z,44.69
2023-02-23T08:26:29.837Z,46.65
2023-02-23T08:28:58.262Z,46.00
2023-02-23T08:31:28.481Z,48.55
2023-02-23T08:33:57.049Z,45.92
2023-02-23T08:36:25.451Z,45.95
2023-02-23T08:38:55.117Z,46.45
2023-02-23T08:41:23.500Z,46.35
2023-02-23T08:43:51.939Z,46.90
2023-02-23T08:46:21.482Z,47.15
2023-02-23T08:48:49.920Z,46.81
2023-02-23T08:51:18.746Z,45.68
2023-02-23T08:53:47.527Z,46.97
2023-02-23T08:56:16.441Z,44.96
2023-02-23T08:58:44.879Z,45.38
2023-02-23T09:01:22.802Z,46.58
2023-02-23T09:03:51.636Z,47.84
2023-02-23T09:06:23.047Z,46.54
2023-02-23T09:08:51.473Z,47.33
2023-02-23T09:11:20.102Z,44.04
2023-02-23T09:13:48.723Z,44.07
2023-02-23T09:16:17.508Z,47.10
2023-02-23T09:18:46.172Z,46.97
2023-02-23T09:21:21.968Z,44.09
2023-02-23T09:23:52.212Z,43.28
2023-02-23T09:26:21.982Z,43.55
2023-02-23T09:28:50.849Z,47.17
2023-02-23T09:31:22.535Z,45.99
2023-02-23T09:33:52.589Z,43.90
2023-02-23T09:36:26.585Z,44.44
2023-02-23T09:38:58.100Z,44.34
2023-02-23T09:42:01.640Z,43.71
2023-02-23T09:44:44.169Z,44.00
2023-02-23T09:47:27.310Z,45.02
2023-02-23T09:49:57.401Z,45.30
2023-02-23T09:52:43.073Z,45.38
2023-02-23T09:55:14.618Z,46.08
2023-02-23T09:57:47.204Z,45.86
2023-02-23T10:00:25.090Z,45.76
2023-02-23T10:03:34.711Z,45.94
2023-02-23T10:06:10.210Z,46.12
2023-02-23T10:09:12.672Z,46.37
2023-02-23T10:12:06.761Z,47.67
2023-02-23T10:14:51.969Z,47.80
2023-02-23T10:17:35.230Z,47.72
2023-02-23T10:20:21.127Z,47.81
2023-02-23T10:22:51.334Z,48.20
2023-02-23T10:25:26.946Z,48.78
2023-02-23T10:27:58.484Z,48.76
2023-02-23T10:30:30.210Z,49.63
2023-02-23T10:33:28.299Z,50.15
2023-02-23T10:36:12.854Z,50.36
2023-02-23T10:38:41.869Z,49.94
2023-02-23T10:41:14.719Z,50.20
2023-02-23T10:43:43.677Z,50.35
2023-02-23T10:46:22.713Z,50.52
2023-02-23T10:48:53.893Z,50.66
2023-02-23T10:51:29.526Z,50.29
2023-02-23T10:54:07.484Z,50.31
2023-02-23T10:56:47.631Z,51.07
2023-02-23T10:59:22.335Z,51.73
2023-02-23T11:02:01.560Z,53.02
2023-02-23T11:04:35.682Z,53.34
2023-02-23T11:07:17.814Z,54.39
2023-02-23T11:09:48.141Z,54.47
2023-02-23T11:12:27.018Z,55.33
2023-02-23T11:14:58.057Z,56.36
2023-02-23T11:17:38.776Z,55.90
2023-02-23T11:20:19.038Z,55.65
2023-02-23T11:22:47.697Z,56.13
2023-02-23T11:25:25.527Z,55.25
2023-02-23T11:27:54.854Z,55.65
2023-02-23T11:30:26.321Z,55.56
2023-02-23T11:33:03.473Z,54.97
2023-02-23T11:35:33.224Z,55.73
2023-02-23T11:38:15.474Z,56.00
2023-02-23T11:40:43.805Z,56.67
2023-02-23T11:43:21.825Z,57.08
2023-02-23T11:45:53.236Z,56.79
2023-02-23T11:48:39.817Z,56.39
2023-02-23T11:51:08.956Z,56.89
2023-02-23T11:53:41.387Z,57.14
2023-02-23T11:56:13.413Z,57.97
2023-02-23T11:58:45.474Z,58.37
2023-02-23T12:01:18.025Z,59.28
2023-02-23T12:03:54.037Z,59.83
2023-02-23T12:06:43.563Z,59.68
2023-02-23T12:09:33.919Z,60.47
2023-02-23T12:12:15.365Z,60.89
2023-02-23T12:14:52.242Z,61.22
2023-02-23T12:17:36.529Z,60.72
2023-02-23T12:20:30.402Z,61.24
2023-02-23T12:23:09.280Z,59.99
2023-02-23T12:25:54.054Z,60.10
2023-02-23T12:28:44.637Z,59.24
2023-02-23T12:31:41.460Z,63.01
2023-02-23T12:34:28.629Z,62.57
2023-02-23T12:37:10.444Z,63.46
2023-02-23T12:39:44.518Z,63.61
2023-02-23T12:42:29.918Z,63.96
2023-02-23T12:45:05.116Z,64.49
2023-02-23T12:48:01.299Z,64.85
2023-02-23T12:50:31.915Z,65.62
2023-02-23T12:53:09.118Z,66.91
2023-02-23T12:55:49.631Z,67.85
2023-02-23T12:58:29.818Z,68.55
2023-02-23T13:01:05.258Z,68.72
2023-02-23T13:03:42.328Z,69.87
2023-02-23T13:06:21.611Z,69.63
2023-02-23T13:09:10.023Z,70.39
2023-02-23T13:12:12.354Z,71.79
2023-02-23T13:14:57.708Z,72.36
2023-02-23T13:17:28.865Z,72.90
2023-02-23T13:20:02.763Z,74.53
2023-02-23T13:22:47.139Z,75.24
2023-02-23T13:25:42.733Z,75.76
2023-02-23T13:28:38.298Z,76.67
2023-02-23T13:31:13.383Z,77.38
2023-02-23T13:33:44.290Z,78.35
2023-02-23T13:36:13.804Z,79.28
2023-02-23T13:38:47.640Z,79.71
2023-02-23T13:41:35.056Z,79.49
2023-02-23T13:44:21.771Z,79.92
2023-02-23T13:47:07.898Z,79.61
2023-02-23T13:49:55.980Z,79.21
2023-02-23T13:52:42.509Z,78.98
2023-02-23T13:55:40.057Z,79.22
2023-02-23T13:58:19.395Z,79.61
2023-02-23T14:01:04.289Z,79.38
2023-02-23T14:03:41.057Z,80.38
2023-02-23T14:06:13.788Z,80.97
2023-02-23T14:08:46.281Z,80.18
2023-02-23T14:11:31.080Z,79.65
2023-02-23T14:14:03.231Z,79.29
2023-02-23T14:16:32.162Z,78.91
2023-02-23T14:19:10.840Z,79.30
2023-02-23T14:21:51.003Z,79.28
2023-02-23T14:24:21.278Z,79.81
2023-02-23T14:27:27.822Z,80.29
2023-02-23T14:30:11.931Z,80.90
2023-02-23T14:32:46.728Z,81.22
2023-02-23T14:35:33.778Z,80.85
2023-02-23T14:38:17.540Z,82.00
2023-02-23T14:40:50.241Z,82.95
2023-02-23T14:43:36.942Z,83.50
2023-02-23T14:46:09.845Z,84.04
2023-02-23T14:48:59.518Z,80.76
2023-02-23T14:51:45.833Z,81.50
2023-02-23T14:54:24.528Z,82.71
2023-02-23T14:56:56.112Z,83.48
2023-02-23T14:59:28.335Z,83.00
2023-02-23T15:02:00.858Z,82.82
2023-02-23T15:04:31.426Z,82.78
2023-02-23T15:07:03.165Z,82.47
2023-02-23T15:09:44.258Z,82.59
2023-02-23T15:12:21.406Z,81.95
2023-02-23T15:14:51.230Z,82.33
2023-02-23T15:17:25.381Z,82.99
2023-02-23T15:20:14.800Z,82.42
2023-02-23T15:22:52.230Z,82.03
2023-02-23T15:25:24.835Z,82.26
2023-02-23T15:27:54.062Z,82.25
2023-02-23T15:30:33.318Z,82.43
2023-02-23T15:33:13.348Z,82.15
2023-02-23T15:35:53.713Z,83.52
2023-02-23T15:38:44.138Z,82.62
2023-02-23T15:41:31.824Z,80.52
2023-02-23T15:44:29.676Z,80.79
2023-02-23T15:47:07.779Z,79.64
2023-02-23T15:49:41.188Z,80.01
2023-02-23T15:52:21.788Z,78.42
2023-02-23T15:55:02.479Z,76.84
2023-02-23T15:57:33.137Z,80.89
2023-02-23T16:00:11.268Z,82.02
2023-02-23T16:02:42.233Z,82.71
2023-02-23T16:05:21.371Z,82.33
2023-02-23T16:07:49.774Z,82.98
2023-02-23T16:10:25.935Z,83.34
2023-02-23T16:12:55.579Z,84.10
2023-02-23T16:15:28.773Z,83.37
2023-02-23T16:18:03.844Z,84.41
2023-02-23T16:20:42.326Z,84.76
2023-02-23T16:23:34.211Z,85.22
2023-02-23T16:26:13.822Z,85.53
2023-02-23T16:28:45.936Z,86.72
2023-02-23T16:31:21.364Z,86.85
2023-02-23T16:33:55.418Z,87.19
2023-02-23T16:36:26.202Z,87.77
2023-02-23T16:38:59.009Z,86.15
2023-02-23T16:41:31.418Z,85.82
2023-02-23T16:44:03.271Z,86.60
2023-02-23T16:46:38.638Z,87.06
2023-02-23T16:49:11.071Z,86.97
2023-02-23T16:51:39.409Z,86.41
2023-02-23T16:54:09.309Z,86.73
2023-02-23T16:56:40.811Z,85.98
2023-02-23T16:59:15.155Z,87.02
2023-02-23T17:01:43.548Z,86.41
2023-02-23T17:04:16.360Z,87.89
2023-02-23T17:06:53.733Z,87.38
2023-02-23T17:09:22.485Z,88.46
2023-02-23T17:11:50.829Z,87.96
2023-02-23T17:14:28.973Z,88.25
2023-02-23T17:16:57.371Z,88.86
2023-02-23T17:19:26.136Z,88.85
2023-02-23T17:21:54.568Z,88.28
2023-02-23T17:24:27.116Z,89.36
2023-02-23T17:26:56.444Z,89.23
2023-02-23T17:29:25.436Z,89.38
2023-02-23T17:31:54.066Z,89.12
2023-02-23T17:34:22.638Z,88.72
2023-02-23T17:36:50.959Z,88.28
2023-02-23T17:39:19.589Z,88.97
2023-02-23T17:41:48.334Z,89.22
2023-02-23T17:44:16.627Z,88.88
2023-02-23T17:46:45.576Z,88.48
2023-02-23T17:49:13.870Z,88.14
2023-02-23T17:51:42.192Z,88.33
2023-02-23T17:54:10.700Z,88.74
2023-02-23T17:56:39.274Z,88.43
2023-02-23T17:59:07.669Z,88.96
2023-02-23T18:01:35.974Z,89.69
2023-02-23T18:04:04.643Z,89.54
2023-02-23T18:06:33.000Z,90.70
2023-02-23T18:09:02.030Z,91.05
2023-02-23T18:11:30.364Z,90.95
2023-02-23T18:13:59.027Z,91.43
2023-02-23T18:16:27.938Z,92.16
2023-02-23T18:18:58.976Z,91.81
2023-02-23T18:21:28.167Z,91.91
2023-02-23T18:23:56.672Z,91.17
2023-02-23T18:26:25.830Z,87.09
2023-02-23T18:28:55.190Z,89.42
2023-02-23T18:31:26.602Z,87.93
2023-02-23T18:33:55.621Z,89.75
2023-02-23T18:36:30.302Z,89.21
2023-02-23T18:39:00.579Z,90.52
2023-02-23T18:41:31.750Z,86.93
2023-02-23T18:44:05.218Z,88.57
2023-02-23T18:46:33.917Z,89.68
2023-02-23T18:49:02.726Z,85.29
2023-02-23T18:51:31.488Z,88.77
2023-02-23T18:54:00.758Z,89.87
2023-02-23T18:56:29.859Z,90.89
2023-02-23T18:59:00.746Z,89.56
2023-02-23T19:01:32.651Z,90.03
2023-02-23T19:04:03.063Z,89.48
2023-02-23T19:06:32.214Z,91.22
2023-02-23T19:09:04.239Z,91.28
2023-02-23T19:11:34.731Z,90.87
2023-02-23T19:14:06.388Z,90.82
2023-02-23T19:16:36.328Z,91.29
2023-02-23T19:19:07.028Z,91.83
2023-02-23T19:21:35.650Z,91.59
2023-02-23T19:24:04.406Z,91.71
2023-02-23T19:26:34.748Z,92.58
2023-02-23T19:29:03.410Z,92.92
2023-02-23T19:31:31.951Z,92.95
2023-02-23T19:34:00.695Z,93.00
2023-02-23T19:36:34.785Z,92.71
2023-02-23T19:39:16.459Z,91.90
2023-02-23T19:41:46.250Z,92.36
2023-02-23T19:44:14.534Z,92.48
2023-02-23T19:46:43.859Z,92.20
2023-02-23T19:49:12.696Z,92.97
2023-02-23T19:51:41.048Z,93.09
2023-02-23T19:54:09.695Z,93.60
2023-02-23T19:56:39.017Z,94.12
2023-02-23T19:59:07.862Z,94.73
2023-02-23T20:01:37.049Z,95.35
2023-02-23T20:04:06.913Z,95.12
2023-02-23T20:06:41.944Z,95.07
2023-02-23T20:09:10.526Z,94.92
2023-02-23T20:11:38.983Z,94.97
2023-02-23T20:14:09.040Z,94.87
2023-02-23T20:16:37.759Z,94.98
2023-02-23T20:19:07.600Z,94.61
2023-02-23T20:21:37.614Z,95.00
2023-02-23T20:24:06.531Z,94.72
2023-02-23T20:26:37.922Z,94.22
2023-02-23T20:29:11.588Z,93.66
2023-02-23T20:31:42.839Z,93.78
2023-02-23T20:34:12.050Z,93.44
2023-02-23T20:36:40.952Z,92.96
2023-02-23T20:39:11.506Z,93.11
2023-02-23T20:41:44.915Z,93.24
2023-02-23T20:44:15.069Z,93.96
2023-02-23T20:46:45.537Z,93.60
2023-02-23T20:49:15.172Z,93.88
2023-02-23T20:51:45.733Z,93.62
2023-02-23T20:54:15.505Z,93.75
2023-02-23T20:56:44.953Z,93.85
2023-02-23T20:59:14.785Z,93.62
2023-02-23T21:01:45.240Z,93.29
2023-02-23T21:04:14.049Z,93.51
2023-02-23T21:06:43.080Z,93.46
2023-02-23T21:09:18.089Z,91.06
2023-02-23T21:11:47.352Z,92.66
2023-02-23T21:14:16.406Z,92.70
2023-02-23T21:16:47.957Z,91.41
2023-02-23T21:19:18.244Z,92.45
2023-02-23T21:21:49.754Z,92.96
2023-02-23T21:24:19.848Z,92.66
2023-02-23T21:26:48.900Z,93.20
2023-02-23T21:29:17.473Z,92.92
2023-02-23T21:31:47.744Z,92.37
2023-02-23T21:34:22.610Z,92.74
2023-02-23T21:36:52.263Z,93.67
2023-02-23T21:39:20.898Z,92.28
2023-02-23T21:41:49.418Z,93.14
2023-02-23T21:44:17.738Z,94.23
2023-02-23T21:46:46.063Z,93.42
2023-02-23T21:49:14.513Z,90.70
2023-02-23T21:51:42.889Z,93.27
2023-02-23T21:54:11.952Z,93.27
2023-02-23T21:56:40.333Z,93.60
2023-02-23T21:59:09.431Z,94.17
2023-02-23T22:01:40.540Z,93.95
2023-02-23T22:04:12.535Z,93.34
2023-02-23T22:06:44.670Z,93.25
2023-02-23T22:09:16.502Z,93.34
2023-02-23T22:11:48.088Z,92.86
2023-02-23T22:14:20.186Z,92.70
2023-02-23T22:16:50.582Z,92.44
2023-02-23T22:19:19.692Z,92.62
2023-02-23T22:21:51.317Z,92.38
2023-02-23T22:24:19.934Z,92.29
2023-02-23T22:26:55.372Z,92.40
2023-02-23T22:29:26.086Z,91.73
2023-02-23T22:31:54.621Z,91.50
2023-02-23T22:34:23.448Z,91.65
2023-02-23T22:36:51.946Z,92.22
2023-02-23T22:39:20.885Z,91.77
2023-02-23T22:41:49.980Z,91.89
2023-02-23T22:44:23.523Z,92.10
2023-02-23T22:46:53.103Z,92.30
2023-02-23T22:49:21.517Z,91.84
2023-02-23T22:51:51.350Z,91.57
2023-02-23T22:54:21.320Z,91.85
2023-02-23T22:56:49.933Z,91.70
2023-02-23T22:59:21.259Z,91.80
2023-02-23T23:01:51.139Z,91.64
2023-02-23T23:04:22.826Z,91.42
2023-02-23T23:06:51.610Z,91.02
2023-02-23T23:09:22.010Z,91.34
2023-02-23T23:11:51.810Z,91.60
2023-02-23T23:14:20.648Z,91.51
2023-02-23T23:16:49.057Z,91.01
2023-02-23T23:19:26.902Z,91.93
2023-02-23T23:21:56.470Z,91.98
2023-02-23T23:24:26.102Z,91.93
2023-02-23T23:27:01.215Z,91.98
2023-02-23T23:29:31.405Z,92.07
2023-02-23T23:32:01.953Z,92.88
2023-02-23T23:34:34.348Z,92.72
2023-02-23T23:37:03.682Z,92.27
2023-02-23T23:39:31.983Z,92.64
2023-02-23T23:42:02.705Z,93.48
2023-02-23T23:44:31.028Z,93.06
2023-02-23T23:46:59.552Z,93.38
2023-02-23T23:49:27.894Z,93.35
2023-02-23T23:51:57.545Z,93.39
2023-02-23T23:54:34.272Z,94.72
2023-02-23T23:57:02.882Z,94.58
2023-02-23T23:59:32.798Z,94.40
